Time;durP1;ratioP1;P1;durP2;ratioP2;P2;SDS_P1;SDS_P2;PMS_P1;PMS_P2;Temp;Humidity;BMP_temperature;BMP_pressure;BME280_temperature;BME280_humidity;BME280_pressure;Samples;Min_cycle;Max_cycle;Signal;HPM_P1;HPM_P2
2021/11/24 00:01:25;;;;;;;14.97;12.63;;;;;;;4.21;77.33;96369.16;5016648;28;20597;-84
2021/11/24 00:03:52;;;;;;;14.43;12.20;;;;;;;4.27;76.72;96372.03;5016816;28;20195;-85
2021/11/24 00:06:18;;;;;;;14.37;12.63;;;;;;;4.30;76.70;96369.25;5015410;28;20246;-84
2021/11/24 00:08:45;;;;;;;15.63;13.00;;;;;;;4.39;76.22;96373.66;5015299;28;20214;-84
2021/11/24 00:11:11;;;;;;;14.70;12.63;;;;;;;4.29;76.32;96371.91;5015743;28;20231;-84
2021/11/24 00:13:41;;;;;;;14.00;12.13;;;;;;;4.38;75.79;96376.31;5016103;28;20199;-85
2021/11/24 00:16:08;;;;;;;15.63;12.27;;;;;;;4.40;75.84;96377.00;5016113;28;20238;-84
2021/11/24 00:18:36;;;;;;;14.43;12.07;;;;;;;4.47;75.20;96370.50;5015772;28;20190;-84
2021/11/24 00:21:03;;;;;;;14.40;12.90;;;;;;;4.50;74.85;96367.69;5014516;28;20325;-84
2021/11/24 00:23:29;;;;;;;14.90;12.63;;;;;;;4.49;75.15;96364.34;5015096;28;20206;-84
2021/11/24 00:25:56;;;;;;;15.07;13.47;;;;;;;4.45;75.00;96368.06;5014535;28;20213;-84
2021/11/24 00:28:22;;;;;;;15.33;13.17;;;;;;;4.42;74.99;96360.66;5015162;28;20236;-84
2021/11/24 00:30:49;;;;;;;17.63;13.20;;;;;;;4.40;74.88;96354.06;5015607;28;20235;-84
2021/11/24 00:33:15;;;;;;;15.27;13.00;;;;;;;4.40;75.19;96349.78;5014140;28;20214;-84
2021/11/24 00:35:43;;;;;;;14.57;12.70;;;;;;;4.39;74.96;96342.25;5012959;28;20195;-84
2021/11/24 00:38:10;;;;;;;15.83;12.90;;;;;;;4.27;75.55;96353.38;5021896;28;20210;-84
2021/11/24 00:40:37;;;;;;;16.00;12.40;;;;;;;4.28;75.45;96348.16;5024700;28;20823;-84
2021/11/24 00:43:04;;;;;;;15.90;12.97;;;;;;;4.30;74.94;96341.22;5017826;28;20322;-84
2021/11/24 00:45:31;;;;;;;14.80;13.13;;;;;;;4.30;75.20;96346.31;5017253;28;20812;-84
2021/11/24 00:47:57;;;;;;;14.17;12.67;;;;;;;4.32;75.20;96341.91;5016796;28;20210;-84
2021/11/24 00:50:24;;;;;;;16.70;12.63;;;;;;;4.36;75.13;96345.03;5016239;28;20214;-84
2021/11/24 00:52:52;;;;;;;15.30;12.53;;;;;;;4.39;74.88;96343.06;5017130;28;20214;-84
2021/11/24 00:55:18;;;;;;;16.13;13.43;;;;;;;4.40;74.68;96339.59;5016471;28;20195;-84
2021/11/24 00:57:45;;;;;;;16.33;13.77;;;;;;;4.22;74.15;96346.09;5015565;28;20218;-84
2021/11/24 01:00:14;;;;;;;14.90;13.30;;;;;;;4.07;75.25;96334.53;5015115;28;20601;-84
2021/11/24 01:02:41;;;;;;;14.80;12.97;;;;;;;4.06;75.43;96332.91;5016222;28;20194;-84
2021/11/24 01:05:08;;;;;;;15.63;13.63;;;;;;;4.00;75.50;96341.84;5015273;28;20199;-84
2021/11/24 01:07:34;;;;;;;14.60;12.63;;;;;;;3.74;76.63;96341.28;5015906;28;20203;-84
2021/11/24 01:10:04;;;;;;;14.50;13.00;;;;;;;3.83;76.70;96341.53;5017679;28;20203;-84
2021/11/24 01:12:31;;;;;;;15.47;13.80;;;;;;;3.93;76.18;96340.69;5014614;28;20199;-84
2021/11/24 01:14:57;;;;;;;15.27;13.10;;;;;;;3.92;76.14;96340.81;5014989;28;20697;-84
2021/11/24 01:17:24;;;;;;;15.23;12.63;;;;;;;3.83;76.53;96344.88;5015185;28;20233;-84
2021/11/24 01:19:50;;;;;;;15.20;12.87;;;;;;;3.87;76.13;96338.59;5015360;28;20213;-84
2021/11/24 01:22:17;;;;;;;15.40;13.33;;;;;;;3.81;76.18;96342.44;5014660;28;20227;-84
2021/11/24 01:24:43;;;;;;;17.77;13.47;;;;;;;3.79;76.50;96339.19;5014908;28;20576;-84
2021/11/24 01:27:11;;;;;;;16.27;14.00;;;;;;;3.70;76.93;96332.25;5015774;28;20195;-84
2021/11/24 01:29:39;;;;;;;17.50;14.43;;;;;;;3.60;77.58;96328.78;5014692;28;20202;-84
2021/11/24 01:32:06;;;;;;;16.50;13.93;;;;;;;3.46;78.42;96327.25;5014317;28;20604;-84
2021/11/24 01:34:33;;;;;;;17.93;14.33;;;;;;;3.41;79.06;96338.72;5014194;28;20210;-84
2021/11/24 01:37:00;;;;;;;16.80;14.80;;;;;;;3.32;79.23;96327.47;5014011;28;20229;-85
2021/11/24 01:39:26;;;;;;;16.80;14.27;;;;;;;3.36;79.53;96335.69;5014888;28;20199;-84
2021/11/24 01:41:53;;;;;;;16.47;13.87;;;;;;;3.37;79.46;96316.94;5015219;28;20238;-84
2021/11/24 01:44:23;;;;;;;17.33;14.93;;;;;;;3.31;79.48;96323.31;5015091;28;20577;-84
2021/11/24 01:46:54;;;;;;;16.47;14.60;;;;;;;3.28;79.41;96317.63;5014295;28;20198;-84
2021/11/24 01:49:21;;;;;;;18.00;15.30;;;;;;;3.12;80.93;96323.03;5014455;28;20257;-84
2021/11/24 01:51:48;;;;;;;20.40;16.20;;;;;;;2.97;82.37;96309.72;5013723;28;20241;-84
2021/11/24 01:54:15;;;;;;;20.67;16.53;;;;;;;2.87;83.26;96308.78;5018678;28;20198;-84
2021/11/24 01:56:41;;;;;;;22.63;16.83;;;;;;;2.84;84.73;96314.06;5018029;28;20218;-84
2021/11/24 01:59:08;;;;;;;23.33;17.37;;;;;;;2.70;86.27;96307.41;5017007;28;20198;-84
2021/11/24 02:01:38;;;;;;;26.43;18.63;;;;;;;2.66;87.48;96308.59;5016595;28;20218;-84
2021/11/24 02:04:05;;;;;;;24.47;17.63;;;;;;;2.60;88.25;96303.94;5017242;28;20198;-84
2021/11/24 02:06:32;;;;;;;25.40;18.00;;;;;;;2.53;89.19;96312.09;5017157;28;20199;-84
2021/11/24 02:08:58;;;;;;;25.47;18.00;;;;;;;2.60;89.32;96309.03;5016883;28;20697;-85
2021/11/24 02:11:25;;;;;;;25.33;17.90;;;;;;;2.51;89.58;96301.22;5018496;28;20223;-84
2021/11/24 02:13:51;;;;;;;27.40;17.73;;;;;;;2.43;90.40;96297.50;5017792;28;20194;-84
2021/11/24 02:16:18;;;;;;;25.17;18.20;;;;;;;2.54;89.91;96301.00;5018450;28;20202;-84
2021/11/24 02:18:45;;;;;;;25.63;18.97;;;;;;;2.63;89.77;96295.28;5017363;28;20552;-84
2021/11/24 02:21:13;;;;;;;26.07;18.80;;;;;;;2.56;90.45;96294.91;5017235;28;20241;-83
2021/11/24 02:23:40;;;;;;;26.33;18.10;;;;;;;2.68;89.43;96281.31;5018004;28;20591;-84
2021/11/24 02:26:06;;;;;;;23.13;17.30;;;;;;;2.69;89.81;96285.47;5016981;28;20210;-84
2021/11/24 02:28:33;;;;;;;25.33;18.00;;;;;;;2.81;88.38;96288.88;5018601;28;20195;-84
2021/11/24 02:30:59;;;;;;;27.90;19.07;;;;;;;2.87;87.80;96280.81;5019338;28;20233;-85
2021/11/24 02:33:26;;;;;;;28.00;19.07;;;;;;;2.87;87.52;96275.72;5017831;28;20198;-84
2021/11/24 02:35:52;;;;;;;28.33;19.30;;;;;;;2.97;87.32;96271.56;5017225;28;20290;-84
2021/11/24 02:38:20;;;;;;;24.23;18.40;;;;;;;3.01;87.02;96269.59;5018133;28;20219;-84
2021/11/24 02:40:47;;;;;;;25.67;18.90;;;;;;;2.94;86.94;96269.22;5018370;28;20227;-84
2021/11/24 02:43:13;;;;;;;26.90;19.13;;;;;;;2.88;87.50;96261.28;5017381;28;20195;-84
2021/11/24 02:45:40;;;;;;;24.73;17.57;;;;;;;3.03;86.29;96250.75;5017333;28;20203;-84
2021/11/24 02:48:06;;;;;;;26.70;18.73;;;;;;;3.14;85.49;96249.97;5017299;28;20290;-84
2021/11/24 02:50:33;;;;;;;23.50;17.50;;;;;;;3.24;84.69;96245.81;5017524;28;20221;-84
2021/11/24 02:53:00;;;;;;;23.83;18.40;;;;;;;3.09;85.20;96237.56;5017285;28;20207;-84
2021/11/24 02:55:27;;;;;;;24.40;18.73;;;;;;;2.97;86.09;96227.50;5017162;28;20202;-84
2021/11/24 02:57:54;;;;;;;22.57;17.47;;;;;;;3.03;85.30;96224.53;5030610;28;20219;-84
2021/11/24 03:00:25;;;;;;;22.90;17.60;;;;;;;2.89;85.67;96222.16;5025801;28;20287;-85
2021/11/24 03:02:53;;;;;;;22.50;16.53;;;;;;;2.72;86.71;96221.69;5018590;28;20203;-84
2021/11/24 03:05:22;;;;;;;22.83;16.73;;;;;;;2.64;87.48;96220.66;5016436;28;20195;-84
2021/11/24 03:07:48;;;;;;;22.90;16.77;;;;;;;2.58;87.63;96214.25;5016596;28;20206;-84
2021/11/24 03:10:15;;;;;;;22.53;16.40;;;;;;;2.54;88.04;96223.03;5017615;28;20219;-85
2021/11/24 03:12:43;;;;;;;24.03;17.30;;;;;;;2.58;87.74;96216.00;5017467;28;20292;-84
2021/11/24 03:15:11;;;;;;;23.73;17.17;;;;;;;2.64;87.26;96205.38;5016651;28;20191;-84
2021/11/24 03:17:38;;;;;;;24.03;18.07;;;;;;;2.67;87.51;96205.97;5006636;28;20210;-84
2021/11/24 03:20:08;;;;;;;21.20;16.83;;;;;;;2.80;86.64;96208.41;5017750;28;20211;-84
2021/11/24 03:22:34;;;;;;;23.77;17.67;;;;;;;2.80;86.32;96205.88;5015749;28;20242;-84
2021/11/24 03:25:01;;;;;;;25.50;17.37;;;;;;;2.79;86.56;96194.09;5016748;28;20195;-84
2021/11/24 03:27:32;;;;;;;25.07;17.60;;;;;;;2.95;86.13;96193.75;5017579;28;20202;-84
2021/11/24 03:30:01;;;;;;;24.87;18.30;;;;;;;3.06;84.74;96192.03;5016913;28;20207;-84
2021/11/24 03:32:28;;;;;;;24.03;17.50;;;;;;;3.12;84.67;96189.00;5018187;28;20203;-84
2021/11/24 03:34:55;;;;;;;26.27;18.23;;;;;;;3.06;85.28;96191.22;5015648;28;20198;-84
2021/11/24 03:37:22;;;;;;;26.50;17.50;;;;;;;3.18;84.66;96189.47;5016250;28;20227;-84
2021/11/24 03:39:49;;;;;;;22.03;17.50;;;;;;;3.20;84.23;96185.09;5015902;28;20203;-84
2021/11/24 03:42:16;;;;;;;23.90;16.90;;;;;;;3.14;84.18;96183.81;5015531;28;20736;-84
2021/11/24 03:44:43;;;;;;;22.57;16.17;;;;;;;3.19;83.73;96183.47;5016167;28;20218;-84
2021/11/24 03:47:11;;;;;;;20.13;15.60;;;;;;;3.13;84.35;96182.19;5016003;28;20230;-84
2021/11/24 03:49:38;;;;;;;23.40;16.40;;;;;;;3.16;84.13;96184.50;5016179;28;20203;-84
2021/11/24 03:52:05;;;;;;;24.10;16.23;;;;;;;3.26;83.43;96180.34;5014457;28;20234;-84
2021/11/24 03:54:32;;;;;;;22.73;16.03;;;;;;;3.34;83.53;96179.75;5014290;28;20282;-83
2021/11/24 03:56:59;;;;;;;21.87;15.30;;;;;;;3.35;82.80;96181.38;5016496;28;20274;-84
2021/11/24 03:59:25;;;;;;;22.70;16.10;;;;;;;3.37;82.96;96179.53;5015219;28;20693;-84
2021/11/24 04:01:52;;;;;;;19.70;15.23;;;;;;;3.37;83.19;96184.59;5015941;28;20226;-84
2021/11/24 04:04:20;;;;;;;21.23;15.33;;;;;;;3.41;82.90;96178.38;5014337;28;20191;-84
2021/11/24 04:06:46;;;;;;;20.23;15.33;;;;;;;3.45;82.76;96182.28;5015502;28;20678;-84
2021/11/24 04:09:13;;;;;;;20.93;15.37;;;;;;;3.60;82.09;96186.19;5015975;28;20682;-84
2021/11/24 04:11:39;;;;;;;19.23;15.23;;;;;;;3.69;81.89;96177.03;5016393;28;20233;-84
2021/11/24 04:14:06;;;;;;;20.97;15.77;;;;;;;3.63;81.00;96173.22;5016468;28;20215;-84
2021/11/24 04:16:32;;;;;;;21.93;15.37;;;;;;;3.55;81.96;96172.19;5015582;28;20210;-84
2021/11/24 04:19:01;;;;;;;18.97;14.27;;;;;;;3.53;82.34;96164.69;5015369;28;20897;-84
2021/11/24 04:21:30;;;;;;;18.73;14.27;;;;;;;3.58;82.06;96177.88;5016087;28;20237;-84
2021/11/24 04:23:56;;;;;;;20.43;15.23;;;;;;;3.66;81.70;96167.88;5016086;28;20202;-84
2021/11/24 04:26:23;;;;;;;19.73;14.83;;;;;;;3.76;81.50;96167.97;5014806;28;20206;-84
2021/11/24 04:28:50;;;;;;;21.73;15.50;;;;;;;3.88;80.62;96166.19;5015383;28;20210;-84
2021/11/24 04:31:16;;;;;;;19.70;15.27;;;;;;;3.97;80.23;96160.38;5016008;28;20214;-84
2021/11/24 04:33:43;;;;;;;20.57;15.47;;;;;;;3.99;79.71;96164.44;5012700;28;20222;-84
2021/11/24 04:36:09;;;;;;;20.93;15.07;;;;;;;4.05;79.55;96161.38;5007440;28;20203;-84
2021/11/24 04:38:37;;;;;;;20.93;15.57;;;;;;;3.91;79.97;96164.22;5017321;28;20218;-84
2021/11/24 04:41:04;;;;;;;18.60;15.10;;;;;;;3.81;79.99;96160.81;5015857;28;20214;-84
2021/11/24 04:43:32;;;;;;;19.90;15.50;;;;;;;3.84;80.21;96160.56;5016823;28;20617;-84
2021/11/24 04:46:00;;;;;;;21.23;14.90;;;;;;;3.82;80.23;96162.41;5016850;28;20245;-84
2021/11/24 04:48:27;;;;;;;20.33;15.13;;;;;;;3.71;80.32;96157.34;5018165;28;20288;-84
2021/11/24 04:50:53;;;;;;;20.53;14.87;;;;;;;3.56;81.74;96153.44;5015652;28;20226;-84
2021/11/24 04:53:20;;;;;;;21.80;15.17;;;;;;;3.55;81.77;96152.63;5016610;28;20203;-84
2021/11/24 04:55:48;;;;;;;21.07;14.53;;;;;;;3.69;81.87;96156.66;5015987;28;20230;-84
2021/11/24 04:58:14;;;;;;;22.03;15.23;;;;;;;3.80;81.35;96165.09;5014074;28;20700;-84
2021/11/24 05:00:41;;;;;;;18.33;14.53;;;;;;;3.85;81.06;96157.06;5014213;28;20223;-84
2021/11/24 05:03:07;;;;;;;21.67;15.17;;;;;;;3.93;80.67;96161.56;5016024;28;20199;-84
2021/11/24 05:05:34;;;;;;;20.33;14.80;;;;;;;3.91;80.24;96159.13;5016485;28;20293;-84
2021/11/24 05:08:02;;;;;;;20.27;14.53;;;;;;;3.92;80.57;96167.59;5015742;28;20589;-84
2021/11/24 05:10:30;;;;;;;21.57;15.80;;;;;;;3.95;80.04;96167.34;5015935;28;20628;-84
2021/11/24 05:12:58;;;;;;;24.67;17.40;;;;;;;3.93;80.02;96166.66;5015555;28;20207;-84
2021/11/24 05:15:28;;;;;;;22.13;16.17;;;;;;;3.89;80.05;96165.28;5024472;28;20390;-83
2021/11/24 05:17:57;;;;;;;24.17;16.70;;;;;;;3.79;80.62;96166.00;5023945;28;20253;-84
2021/11/24 05:20:26;;;;;;;22.03;14.30;;;;;;;4.20;100.00;96172.13;5015223;28;20230;-81
2021/11/24 05:22:53;;;;;;;19.63;15.40;;;;;;;4.58;89.30;96152.91;5016253;28;20226;-84
2021/11/24 05:25:21;;;;;;;23.13;16.50;;;;;;;4.41;79.70;96161.94;5016420;28;20197;-84
2021/11/24 05:27:47;;;;;;;20.87;15.83;;;;;;;4.30;79.02;96160.25;5016434;28;20202;-84
2021/11/24 05:30:15;;;;;;;20.87;15.40;;;;;;;4.18;79.26;96152.78;5016568;28;20214;-83
2021/11/24 05:32:42;;;;;;;20.03;14.77;;;;;;;4.06;79.54;96155.34;5018530;28;20206;-83
2021/11/24 05:35:09;;;;;;;19.70;14.30;;;;;;;4.05;79.17;96150.38;5016497;28;20195;-83
2021/11/24 05:37:35;;;;;;;20.73;14.20;;;;;;;3.98;78.99;96152.63;5016479;28;20222;-83
2021/11/24 05:40:02;;;;;;;20.00;14.40;;;;;;;4.00;78.85;96150.78;5011155;28;20209;-83
2021/11/24 05:42:28;;;;;;;20.13;13.77;;;;;;;3.77;79.13;96149.22;5012522;28;20202;-83
2021/11/24 05:45:03;;;;;;;20.77;13.93;;;;;;;3.59;80.93;96146.38;5014514;28;20686;-84
2021/11/24 05:50:15;;;;;;;21.40;13.00;;;;;;;3.57;80.44;96145.69;5017135;28;20217;-83
2021/11/24 05:52:42;;;;;;;17.77;13.03;;;;;;;3.61;80.31;96147.09;5015559;28;20198;-83
2021/11/24 05:55:09;;;;;;;19.53;13.37;;;;;;;3.52;81.73;96144.44;5014612;28;20666;-84
2021/11/24 05:57:36;;;;;;;33.00;12.97;;;;;;;3.41;81.20;96141.00;5016236;28;20305;-83
2021/11/24 06:00:03;;;;;;;17.07;12.63;;;;;;;3.56;81.47;96148.34;5015403;28;20265;-83
2021/11/24 06:02:31;;;;;;;19.17;13.87;;;;;;;3.53;83.13;96149.41;5016742;28;20702;-84
2021/11/24 06:04:58;;;;;;;27.17;20.17;;;;;;;3.55;82.02;96150.09;5015163;28;20764;-84
2021/11/24 06:07:25;;;;;;;45.60;33.87;;;;;;;3.57;80.99;96147.44;5017538;28;20210;-83
2021/11/24 06:09:51;;;;;;;26.70;20.20;;;;;;;3.61;80.83;96144.53;5015271;28;20217;-83
2021/11/24 06:12:18;;;;;;;18.10;13.73;;;;;;;3.62;80.55;96142.81;5010050;28;20226;-84
2021/11/24 06:14:44;;;;;;;17.43;12.60;;;;;;;3.60;80.85;96153.09;5014569;28;20203;-84
2021/11/24 06:17:11;;;;;;;20.93;14.00;;;;;;;3.42;81.24;96157.06;5015168;28;20574;-84
2021/11/24 06:19:39;;;;;;;25.17;13.13;;;;;;;3.16;82.31;96148.06;5015969;28;20265;-84
2021/11/24 06:22:05;;;;;;;19.63;13.47;;;;;;;2.96;84.00;96152.13;5013462;28;20253;-84
2021/11/24 06:24:32;;;;;;;18.87;13.87;;;;;;;2.97;84.91;96153.75;5014124;28;20632;-83
2021/11/24 06:26:58;;;;;;;23.97;14.53;;;;;;;2.98;85.01;96148.56;5011539;28;20206;-84
2021/11/24 06:29:25;;;;;;;19.07;13.77;;;;;;;2.94;84.97;96147.16;5014721;28;20199;-83
2021/11/24 06:31:51;;;;;;;18.47;12.83;;;;;;;2.96;85.72;96147.03;5012794;28;20226;-83
2021/11/24 06:34:18;;;;;;;17.20;12.97;;;;;;;3.09;85.12;96146.00;5015055;28;20215;-83
2021/11/24 06:36:45;;;;;;;18.00;13.17;;;;;;;3.15;84.07;96146.47;5015595;28;20203;-83
2021/11/24 06:39:12;;;;;;;20.27;13.33;;;;;;;2.94;85.48;96146.34;5018157;28;20228;-83
2021/11/24 06:41:38;;;;;;;17.97;13.13;;;;;;;2.71;86.50;96145.53;5019699;28;20810;-83
2021/11/24 06:44:05;;;;;;;17.57;13.87;;;;;;;2.86;86.38;96152.03;5018564;28;20317;-83
2021/11/24 06:46:33;;;;;;;22.17;13.83;;;;;;;2.74;85.79;96147.84;5027691;23;20231;-85
2021/11/24 06:48:59;;;;;;;23.10;12.77;;;;;;;2.64;86.94;96160.44;5010145;28;20198;-85
2021/11/24 06:51:26;;;;;;;16.57;12.73;;;;;;;2.67;87.45;96160.22;5003340;28;20200;-85
2021/11/24 06:53:54;;;;;;;19.00;13.00;;;;;;;2.74;86.81;96158.00;4999210;28;20195;-85
2021/11/24 06:56:20;;;;;;;17.20;13.03;;;;;;;2.82;85.92;96160.00;5013262;28;20210;-86
2021/11/24 06:58:47;;;;;;;17.10;12.60;;;;;;;2.85;86.67;96149.59;5015978;28;20227;-85
2021/11/24 07:01:13;;;;;;;16.87;12.63;;;;;;;3.04;85.55;96157.47;5012008;28;20222;-84
2021/11/24 07:03:39;;;;;;;17.77;12.93;;;;;;;3.09;85.66;96150.25;5010557;28;20200;-84
2021/11/24 07:06:06;;;;;;;14.60;10.43;;;;;;;3.42;94.98;96155.34;4999870;28;20632;-80
2021/11/24 07:08:33;;;;;;;14.73;11.70;;;;;;;3.67;92.64;96156.75;5013541;28;20698;-83
2021/11/24 07:11:00;;;;;;;13.53;11.23;;;;;;;4.05;89.75;96156.28;5011643;28;20203;-83
2021/11/24 07:13:27;;;;;;;15.83;11.10;;;;;;;3.89;80.57;96162.72;5007817;28;20195;-84
2021/11/24 07:15:53;;;;;;;15.60;11.97;;;;;;;3.66;81.34;96161.97;5009484;28;20218;-84
2021/11/24 07:18:20;;;;;;;21.30;12.40;;;;;;;3.39;81.81;96167.50;5010715;28;20222;-86
2021/11/24 07:20:46;;;;;;;14.90;11.80;;;;;;;3.36;82.57;96162.63;5014372;28;20705;-84
2021/11/24 07:23:13;;;;;;;15.70;12.20;;;;;;;3.34;82.60;96157.66;5029542;28;20242;-82
2021/11/24 07:25:45;;;;;;;15.17;11.90;;;;;;;3.19;82.71;96165.66;5028334;28;20210;-85
2021/11/24 07:28:14;;;;;;;16.03;11.57;;;;;;;2.93;83.25;96168.44;5034458;28;20205;-85
2021/11/24 07:30:40;;;;;;;15.27;11.30;;;;;;;2.91;83.85;96162.66;5034322;28;20204;-85
2021/11/24 07:33:10;;;;;;;15.70;11.53;;;;;;;2.83;84.56;96161.63;5033452;28;20303;-85
2021/11/24 07:35:36;;;;;;;16.60;11.67;;;;;;;2.88;85.11;96164.63;5028167;28;20213;-85
2021/11/24 07:38:03;;;;;;;14.63;11.23;;;;;;;2.80;84.45;96172.81;5031272;28;20232;-84
2021/11/24 07:40:30;;;;;;;16.40;11.93;;;;;;;2.86;84.81;96164.75;5029379;28;20686;-85
2021/11/24 07:42:56;;;;;;;14.73;11.47;;;;;;;2.97;84.42;96156.28;5030049;28;20198;-85
2021/11/24 07:45:24;;;;;;;13.47;10.40;;;;;;;2.87;84.29;96163.81;5030523;28;20658;-85
2021/11/24 07:47:57;;;;;;;14.03;11.37;;;;;;;2.84;84.49;96163.25;5033573;28;20198;-81
2021/11/24 07:50:23;;;;;;;14.93;10.87;;;;;;;2.72;85.27;96162.41;5031557;28;20208;-81
2021/11/24 07:52:50;;;;;;;14.30;10.63;;;;;;;2.83;86.05;96147.16;5027483;28;20237;-83
2021/11/24 07:55:16;;;;;;;14.80;10.97;;;;;;;2.76;85.75;96149.34;5027806;28;20202;-83
2021/11/24 07:57:43;;;;;;;16.70;12.00;;;;;;;2.55;87.40;96157.75;5030580;28;20225;-82
2021/11/24 08:00:11;;;;;;;15.97;10.97;;;;;;;2.53;86.70;96150.25;5031105;28;20245;-84
2021/11/24 08:02:40;;;;;;;14.50;11.13;;;;;;;2.51;87.58;96143.66;5033101;28;20190;-81
2021/11/24 08:05:08;;;;;;;13.20;10.90;;;;;;;2.60;87.35;96150.59;5032018;28;20285;-81
2021/11/24 08:07:36;;;;;;;13.67;11.03;;;;;;;2.74;86.40;96140.22;5032165;28;20214;-84
2021/11/24 08:10:05;;;;;;;13.60;10.47;;;;;;;2.86;86.21;96143.59;5031854;28;20194;-82
2021/11/24 08:12:32;;;;;;;17.83;11.87;;;;;;;2.85;86.67;96144.50;5033138;28;20213;-81
2021/11/24 08:14:58;;;;;;;15.70;11.93;;;;;;;2.99;85.75;96146.81;5026506;28;20210;-82
2021/11/24 08:17:26;;;;;;;15.57;11.33;;;;;;;3.16;84.60;96143.78;5028155;28;20233;-81
2021/11/24 08:19:54;;;;;;;17.77;12.53;;;;;;;3.30;83.86;96141.00;5037843;28;20230;-83
2021/11/24 08:22:22;;;;;;;15.20;11.73;;;;;;;3.40;82.22;96143.66;5031986;28;20631;-81
2021/11/24 08:24:49;;;;;;;17.13;13.03;;;;;;;3.24;82.41;96141.50;5032789;28;20677;-85
2021/11/24 08:27:16;;;;;;;17.00;11.97;;;;;;;3.32;82.18;96135.78;5032770;28;20226;-81
2021/11/24 08:29:42;;;;;;;16.17;12.13;;;;;;;3.43;81.49;96128.16;5033438;28;20198;-85
2021/11/24 08:32:10;;;;;;;20.47;12.43;;;;;;;3.54;81.11;96124.75;5034172;28;20206;-82
2021/11/24 08:34:37;;;;;;;17.33;12.47;;;;;;;3.50;81.14;96114.00;5032720;28;20661;-82
2021/11/24 08:37:05;;;;;;;17.43;12.37;;;;;;;3.39;81.61;96119.94;5033055;28;20233;-84
2021/11/24 08:39:32;;;;;;;18.03;12.73;;;;;;;3.41;81.65;96115.53;5033283;28;20214;-84
2021/11/24 08:41:58;;;;;;;16.77;12.23;;;;;;;3.41;81.72;96104.56;5032963;28;20202;-85
2021/11/24 08:44:25;;;;;;;17.40;11.93;;;;;;;3.40;82.22;96110.56;5031887;28;20229;-85
2021/11/24 08:46:52;;;;;;;17.10;12.33;;;;;;;3.38;82.22;96110.69;5032668;28;20606;-84
2021/11/24 08:49:18;;;;;;;15.50;11.70;;;;;;;3.45;81.35;96100.84;5032785;28;20202;-83
2021/11/24 08:51:45;;;;;;;14.93;11.57;;;;;;;3.38;82.24;96099.69;5029303;28;20202;-82
2021/11/24 08:54:13;;;;;;;13.90;11.33;;;;;;;3.50;81.71;96105.56;5024400;28;20209;-85
2021/11/24 08:56:42;;;;;;;13.17;10.37;;;;;;;3.60;81.10;96101.38;5028120;28;20250;-83
2021/11/24 08:59:09;;;;;;;14.77;10.97;;;;;;;3.57;80.69;96099.06;5030757;28;20218;-85
2021/11/24 09:01:40;;;;;;;13.07;9.97;;;;;;;3.46;81.22;96093.06;5028435;28;20198;-85
2021/11/24 09:04:07;;;;;;;13.70;10.10;;;;;;;3.26;82.30;96091.28;5022114;28;20202;-83
2021/11/24 09:06:34;;;;;;;13.43;10.83;;;;;;;3.43;82.14;96087.44;5019339;28;20242;-83
2021/11/24 09:09:01;;;;;;;13.60;10.53;;;;;;;3.38;82.11;96090.31;5025479;28;20194;-83
2021/11/24 09:11:29;;;;;;;13.60;10.37;;;;;;;3.46;81.71;96092.28;5023280;28;20197;-84
2021/11/24 09:13:56;;;;;;;14.47;10.23;;;;;;;3.60;81.39;96091.19;5019572;28;20207;-83
2021/11/24 09:16:22;;;;;;;13.97;10.00;;;;;;;3.55;81.16;96086.47;5019675;28;20225;-84
2021/11/24 09:18:49;;;;;;;13.43;10.17;;;;;;;3.61;80.73;96093.63;5021937;28;20939;-87
2021/11/24 09:21:15;;;;;;;13.90;10.10;;;;;;;3.66;80.34;96090.69;5028523;28;20198;-85
2021/11/24 09:23:44;;;;;;;13.97;11.17;;;;;;;3.69;80.10;96081.06;5019081;28;20203;-83
2021/11/24 09:26:19;;;;;;;13.30;10.03;;;;;;;3.71;79.86;96084.31;5031406;28;20214;-85
2021/11/24 09:28:48;;;;;;;12.70;9.47;;;;;;;3.75;79.55;96080.59;5033152;28;20288;-85
2021/11/24 09:31:14;;;;;;;13.10;9.87;;;;;;;3.59;80.36;96087.84;5028561;28;20213;-83
2021/11/24 09:33:41;;;;;;;11.53;9.33;;;;;;;3.48;80.38;96082.75;5012157;28;20207;-86
2021/11/24 09:36:08;;;;;;;13.30;9.60;;;;;;;3.36;80.61;96082.00;5025664;28;20864;-83
2021/11/24 09:38:34;;;;;;;12.67;9.53;;;;;;;3.43;81.39;96072.97;5028266;28;20589;-84
2021/11/24 09:41:04;;;;;;;12.30;9.33;;;;;;;3.52;80.92;96080.78;5018242;28;20687;-83
2021/11/24 09:43:34;;;;;;;10.63;9.03;;;;;;;3.50;80.29;96069.91;5030544;28;20256;-84
2021/11/24 09:46:05;;;;;;;11.50;10.00;;;;;;;3.60;80.59;96068.28;5032731;28;20241;-82
2021/11/24 09:48:32;;;;;;;12.63;9.27;;;;;;;3.57;80.22;96071.06;5030441;28;20226;-83
2021/11/24 09:51:04;;;;;;;10.50;8.77;;;;;;;3.34;80.19;96065.22;5025933;28;20209;-82
2021/11/24 09:53:32;;;;;;;10.67;9.27;;;;;;;3.24;81.08;96064.34;5021393;28;20198;-83
2021/11/24 09:55:58;;;;;;;11.00;8.80;;;;;;;3.31;80.99;96058.63;5025648;28;20598;-82
2021/11/24 09:58:25;;;;;;;10.03;8.80;;;;;;;3.37;80.17;96059.91;5031694;28;20696;-85
2021/11/24 10:00:51;;;;;;;10.50;9.07;;;;;;;3.49;79.71;96051.28;5019557;28;20202;-84
2021/11/24 10:03:19;;;;;;;12.17;8.83;;;;;;;3.51;79.29;96049.44;5032185;28;20685;-85
2021/11/24 10:05:48;;;;;;;12.13;8.80;;;;;;;3.48;78.95;96042.84;5029112;28;20313;-81
2021/11/24 10:08:14;;;;;;;11.77;9.07;;;;;;;3.52;78.89;96038.31;5020656;28;20235;-86
2021/11/24 10:10:41;;;;;;;11.27;8.33;;;;;;;3.51;78.24;96029.06;5030482;28;20202;-84
2021/11/24 10:13:07;;;;;;;10.07;8.57;;;;;;;3.62;78.02;96026.50;5032813;28;20948;-82
2021/11/24 10:15:40;;;;;;;9.53;8.53;;;;;;;3.68;77.63;96028.53;5034914;28;20205;-83
2021/11/24 10:18:21;;;;;;;10.60;8.00;;;;;;;3.17;78.94;96028.38;5026843;28;20206;-81
2021/11/24 10:20:50;;;;;;;10.27;8.97;;;;;;;3.12;79.81;96025.38;5016665;28;20222;-85
2021/11/24 10:23:22;;;;;;;10.10;8.20;;;;;;;3.21;79.90;96024.69;5026787;28;20228;-85
2021/11/24 10:25:48;;;;;;;14.07;8.50;;;;;;;3.30;79.11;96016.31;5034419;28;20222;-82
2021/11/24 10:28:25;;;;;;;8.97;8.07;;;;;;;2.97;79.94;96011.31;5032404;28;20199;-84
2021/11/24 10:30:54;;;;;;;11.17;8.43;;;;;;;2.90;80.25;96017.81;5022495;28;20198;-84
2021/11/24 10:33:29;;;;;;;10.17;8.37;;;;;;;2.93;80.39;96010.75;5025099;28;20271;-83
2021/11/24 10:36:07;;;;;;;10.37;8.00;;;;;;;2.96;80.32;96005.44;5035058;28;20626;-82
2021/11/24 10:38:41;;;;;;;10.37;8.03;;;;;;;2.95;80.36;96008.91;5029252;28;20571;-81
2021/11/24 10:41:10;;;;;;;9.77;8.10;;;;;;;3.08;79.72;95999.38;5015737;28;20213;-85
2021/11/24 10:43:42;;;;;;;9.53;7.40;;;;;;;3.16;79.23;95998.78;5037589;28;20212;-80
2021/11/24 10:46:09;;;;;;;9.03;8.13;;;;;;;3.20;79.08;95995.06;5054629;28;20279;-82
2021/11/24 10:48:37;;;;;;;8.80;7.40;;;;;;;3.07;79.14;95994.44;5055049;28;20198;-85
2021/11/24 10:58:01;;;;;;;7.87;6.60;;;;;;;2.96;79.67;95972.38;5026086;28;20214;-85
2021/11/24 11:00:37;;;;;;;8.43;6.50;;;;;;;2.90;79.67;95972.84;5034883;28;20229;-85
2021/11/24 11:03:05;;;;;;;8.60;6.77;;;;;;;2.98;79.10;95973.06;5031299;28;20688;-82
2021/11/24 11:05:36;;;;;;;8.40;6.93;;;;;;;2.72;80.04;95971.72;5032113;28;20202;-85
2021/11/24 11:08:05;;;;;;;7.20;6.40;;;;;;;2.75;79.99;95964.69;5034794;28;20202;-82
2021/11/24 11:10:34;;;;;;;7.37;6.20;;;;;;;2.87;79.39;95965.47;5031653;28;20198;-82
2021/11/24 11:13:02;;;;;;;8.00;6.67;;;;;;;2.90;78.82;95964.41;5034280;28;20210;-83
2021/11/24 11:15:33;;;;;;;7.10;6.20;;;;;;;2.89;78.27;95960.25;5027271;28;20208;-85
2021/11/24 11:18:12;;;;;;;8.10;6.67;;;;;;;3.05;78.34;95958.13;5027968;28;20195;-81
2021/11/24 11:20:47;;;;;;;7.33;6.17;;;;;;;3.13;77.81;95951.50;5026324;28;20767;-81
2021/11/24 11:23:21;;;;;;;6.83;6.07;;;;;;;3.05;77.11;95945.41;5028273;28;20231;-84
2021/11/24 11:25:51;;;;;;;6.90;6.20;;;;;;;2.97;77.68;95942.66;5025940;28;20218;-85
2021/11/24 11:28:19;;;;;;;7.43;6.53;;;;;;;2.83;78.60;95938.66;5019048;28;20572;-81
2021/11/24 11:30:48;;;;;;;8.37;7.10;;;;;;;2.72;78.68;95939.50;5022473;28;20249;-85
2021/11/24 11:33:16;;;;;;;7.17;6.40;;;;;;;2.77;78.70;95923.88;5015524;28;20225;-85
2021/11/24 11:35:45;;;;;;;7.23;6.40;;;;;;;2.78;78.13;95926.31;5014593;28;20199;-81
2021/11/24 11:38:12;;;;;;;7.30;6.47;;;;;;;2.71;78.50;95920.06;5019205;28;20590;-85